createdAt,value
2023-05-10T00:00:23.566Z,13.15
2023-05-10T00:03:26.195Z,13.04
2023-05-10T00:06:29.002Z,12.98
2023-05-10T00:09:31.642Z,12.90
2023-05-10T00:12:34.119Z,12.87
2023-05-10T00:15:36.569Z,12.75
2023-05-10T00:18:39.103Z,12.69
2023-05-10T00:21:41.764Z,12.47
2023-05-10T00:24:44.206Z,12.47
2023-05-10T00:27:46.622Z,12.38
2023-05-10T00:30:49.089Z,12.28
2023-05-10T00:33:51.562Z,12.17
2023-05-10T00:36:53.987Z,12.14
2023-05-10T00:39:57.673Z,11.92
2023-05-10T00:43:01.523Z,12.14
2023-05-10T00:46:05.166Z,12.23
2023-05-10T00:49:08.555Z,12.23
2023-05-10T00:52:11.289Z,12.31
2023-05-10T00:55:15.039Z,12.40
2023-05-10T00:58:18.139Z,12.34
2023-05-10T01:01:20.980Z,12.30
2023-05-10T01:04:26.597Z,12.30
2023-05-10T01:07:29.763Z,12.36
2023-05-10T01:10:32.726Z,12.18
2023-05-10T01:13:38.958Z,12.18
2023-05-10T01:16:43.238Z,12.24
2023-05-10T01:19:45.748Z,12.14
2023-05-10T01:23:10.033Z,12.24
2023-05-10T01:26:31.963Z,12.33
2023-05-10T01:30:21.746Z,12.33
2023-05-10T01:33:30.795Z,12.39
2023-05-10T01:36:59.557Z,12.42
2023-05-10T01:40:31.193Z,12.36
2023-05-10T01:43:41.355Z,12.45
2023-05-10T01:46:44.144Z,12.55
2023-05-10T01:49:53.065Z,12.47
2023-05-10T01:52:58.983Z,12.45
2023-05-10T01:56:03.156Z,12.56
2023-05-10T01:59:09.860Z,12.54
2023-05-10T02:02:14.554Z,12.75
2023-05-10T02:05:18.553Z,12.68
2023-05-10T02:08:22.865Z,12.62
2023-05-10T02:11:26.534Z,12.45
2023-05-10T02:14:31.858Z,12.48
2023-05-10T02:17:36.471Z,12.29
2023-05-10T02:20:40.076Z,12.29
2023-05-10T02:23:44.219Z,12.37
2023-05-10T02:26:49.390Z,12.32
2023-05-10T02:29:52.643Z,12.38
2023-05-10T02:32:56.589Z,12.45
2023-05-10T02:36:00.285Z,12.38
2023-05-10T02:39:03.653Z,12.36
2023-05-10T02:42:06.654Z,12.33
2023-05-10T02:45:13.743Z,12.40
2023-05-10T02:48:17.999Z,12.20
2023-05-10T02:51:25.679Z,12.32
2023-05-10T02:54:34.117Z,12.36
2023-05-10T02:57:42.317Z,12.13
2023-05-10T03:00:44.931Z,12.21
2023-05-10T03:03:47.871Z,12.27
2023-05-10T03:06:51.421Z,12.29
2023-05-10T03:09:54.341Z,12.19
2023-05-10T03:13:22.033Z,12.39
2023-05-10T03:16:30.566Z,12.48
2023-05-10T03:19:51.985Z,12.34
2023-05-10T03:23:06.293Z,12.33
2023-05-10T03:26:09.760Z,12.28
2023-05-10T03:29:14.174Z,12.23
2023-05-10T03:32:16.806Z,12.06
2023-05-10T03:35:19.274Z,11.83
2023-05-10T03:38:22.096Z,11.93
2023-05-10T03:41:24.809Z,11.79
2023-05-10T03:44:27.226Z,11.77
2023-05-10T03:47:30.867Z,11.61
2023-05-10T03:50:34.167Z,11.65
2023-05-10T03:53:36.786Z,11.61
2023-05-10T03:56:39.434Z,11.52
2023-05-10T03:59:42.360Z,11.42
2023-05-10T04:02:46.254Z,11.37
2023-05-10T04:06:03.512Z,11.26
2023-05-10T04:09:06.408Z,11.22
2023-05-10T04:12:10.858Z,11.16
2023-05-10T04:15:13.728Z,11.25
2023-05-10T04:18:16.527Z,11.36
2023-05-10T04:21:19.007Z,11.50
2023-05-10T04:24:21.491Z,11.62
2023-05-10T04:27:23.991Z,11.60
2023-05-10T04:30:26.582Z,11.67
2023-05-10T04:33:29.065Z,11.64
2023-05-10T04:36:33.495Z,11.80
2023-05-10T04:39:36.752Z,11.81
2023-05-10T04:42:42.142Z,11.81
2023-05-10T04:45:44.531Z,11.78
2023-05-10T04:48:46.967Z,11.90
2023-05-10T04:51:49.537Z,11.84
2023-05-10T04:54:52.451Z,11.72
2023-05-10T04:57:57.785Z,11.64
2023-05-10T05:01:10.512Z,11.55
2023-05-10T05:04:13.094Z,11.59
2023-05-10T05:07:15.832Z,11.69
2023-05-10T05:10:18.737Z,11.53
2023-05-10T05:13:21.595Z,11.63
2023-05-10T05:16:24.527Z,11.68
2023-05-10T05:19:28.530Z,11.69
2023-05-10T05:22:32.919Z,11.60
2023-05-10T05:25:36.650Z,11.74
2023-05-10T05:28:40.231Z,11.82
2023-05-10T05:31:43.694Z,12.01
2023-05-10T05:34:47.313Z,12.18
2023-05-10T05:37:50.536Z,12.24
2023-05-10T05:40:53.128Z,12.43
2023-05-10T05:43:58.502Z,12.82
2023-05-10T05:47:01.404Z,13.13
2023-05-10T05:50:04.799Z,13.61
2023-05-10T05:53:07.793Z,13.57
2023-05-10T05:56:10.913Z,13.51
2023-05-10T05:59:14.030Z,13.39
2023-05-10T06:02:16.917Z,13.31
2023-05-10T06:05:20.233Z,13.37
2023-05-10T06:08:23.827Z,13.33
2023-05-10T06:11:27.273Z,13.58
2023-05-10T06:14:30.438Z,13.65
2023-05-10T06:17:33.654Z,13.77
2023-05-10T06:20:36.480Z,13.99
2023-05-10T06:23:39.959Z,14.19
2023-05-10T06:26:42.588Z,14.54
2023-05-10T06:29:45.040Z,14.49
2023-05-10T06:32:48.342Z,14.44
2023-05-10T06:35:51.438Z,14.15
2023-05-10T06:38:54.166Z,14.31
2023-05-10T06:41:57.159Z,14.63
2023-05-10T06:45:00.668Z,14.92
2023-05-10T06:48:03.901Z,15.10
2023-05-10T06:51:06.867Z,15.23
2023-05-10T06:54:30.325Z,15.14
2023-05-10T06:57:32.939Z,15.35
2023-05-10T07:00:35.807Z,15.91
2023-05-10T07:03:38.739Z,16.18
2023-05-10T07:06:41.756Z,16.12
2023-05-10T07:09:44.680Z,16.29
2023-05-10T07:12:48.703Z,16.26
2023-05-10T07:15:51.362Z,16.39
2023-05-10T07:18:54.649Z,16.14
2023-05-10T07:21:57.222Z,16.42
2023-05-10T07:24:59.617Z,16.54
2023-05-10T07:28:02.278Z,16.61
2023-05-10T07:31:05.162Z,17.25
2023-05-10T07:34:07.817Z,17.65
2023-05-10T07:37:10.380Z,18.07
2023-05-10T07:40:13.165Z,18.04
2023-05-10T07:43:15.531Z,18.26
2023-05-10T07:46:18.319Z,17.78
2023-05-10T07:49:21.137Z,18.33
2023-05-10T07:52:23.578Z,18.12
2023-05-10T07:55:27.880Z,17.98
2023-05-10T07:58:31.504Z,17.94
2023-05-10T08:01:36.088Z,18.31
2023-05-10T08:04:38.625Z,18.10
2023-05-10T08:07:42.011Z,18.07
2023-05-10T08:10:45.279Z,18.37
2023-05-10T08:13:49.345Z,18.32
2023-05-10T08:16:51.879Z,18.18
2023-05-10T08:19:54.874Z,18.68
2023-05-10T08:22:57.343Z,18.65
2023-05-10T08:26:00.843Z,18.51
2023-05-10T08:29:03.576Z,18.62
2023-05-10T08:32:06.277Z,18.53
2023-05-10T08:35:08.765Z,18.36
2023-05-10T08:38:11.422Z,18.26
2023-05-10T08:41:14.914Z,18.47
2023-05-10T08:44:19.318Z,18.88
2023-05-10T08:47:22.317Z,18.93
2023-05-10T08:50:26.412Z,19.58
2023-05-10T08:53:34.404Z,19.77
2023-05-10T08:56:37.547Z,19.37
2023-05-10T08:59:41.618Z,20.15
2023-05-10T09:02:45.258Z,19.57
2023-05-10T09:05:48.787Z,19.82
2023-05-10T09:08:52.082Z,19.60
2023-05-10T09:11:55.620Z,19.48
2023-05-10T09:15:00.807Z,19.47
2023-05-10T09:18:03.604Z,19.07
2023-05-10T09:21:06.493Z,19.30
2023-05-10T09:24:10.095Z,19.25
2023-05-10T09:27:12.534Z,19.32
2023-05-10T09:30:25.459Z,20.27
2023-05-10T09:33:28.386Z,20.19
2023-05-10T09:36:30.900Z,20.55
2023-05-10T09:39:38.562Z,19.99
2023-05-10T09:42:43.587Z,19.68
2023-05-10T09:45:50.863Z,19.72
2023-05-10T09:48:53.790Z,20.05
2023-05-10T09:52:07.503Z,21.10
2023-05-10T09:55:10.317Z,21.42
2023-05-10T09:58:16.121Z,22.04
2023-05-10T10:01:18.646Z,21.73
2023-05-10T10:04:22.385Z,21.16
2023-05-10T10:07:26.613Z,20.88
2023-05-10T10:10:29.679Z,21.02
2023-05-10T10:13:33.256Z,21.91
2023-05-10T10:16:36.399Z,21.99
2023-05-10T10:19:39.240Z,22.14
2023-05-10T10:22:42.236Z,22.24
2023-05-10T10:25:49.005Z,22.04
2023-05-10T10:28:57.482Z,22.42
2023-05-10T10:32:18.638Z,21.61
2023-05-10T10:35:21.365Z,21.07
2023-05-10T10:38:24.393Z,22.39
2023-05-10T10:41:36.503Z,25.80
2023-05-10T10:44:39.777Z,23.80
2023-05-10T10:47:44.550Z,25.46
2023-05-10T10:50:50.346Z,23.22
2023-05-10T10:53:53.015Z,27.46
2023-05-10T10:57:15.528Z,28.52
2023-05-10T11:00:22.791Z,29.26
2023-05-10T11:03:26.564Z,27.65
2023-05-10T11:06:34.624Z,27.67
2023-05-10T11:09:41.223Z,24.96
2023-05-10T11:13:04.510Z,24.06
2023-05-10T11:16:18.906Z,23.50
2023-05-10T11:19:21.735Z,28.29
2023-05-10T11:22:26.818Z,29.51
2023-05-10T11:25:29.670Z,26.11
2023-05-10T11:28:33.090Z,24.64
2023-05-10T11:31:36.406Z,23.68
2023-05-10T11:34:39.804Z,22.76
2023-05-10T11:37:44.752Z,22.42
2023-05-10T11:40:47.867Z,22.55
2023-05-10T11:43:52.414Z,22.27
2023-05-10T11:46:55.021Z,22.05
2023-05-10T11:49:58.337Z,21.91
2023-05-10T11:53:00.967Z,21.72
2023-05-10T11:56:07.702Z,21.64
2023-05-10T11:59:10.730Z,21.82
2023-05-10T12:02:17.053Z,21.98
2023-05-10T12:05:19.634Z,22.56
2023-05-10T12:08:27.465Z,23.21
2023-05-10T12:11:30.031Z,27.15
2023-05-10T12:14:36.215Z,31.17
2023-05-10T12:17:43.186Z,32.21
2023-05-10T12:20:46.174Z,28.88
2023-05-10T12:23:52.342Z,32.92
2023-05-10T12:26:54.790Z,33.23
2023-05-10T12:30:00.766Z,30.93
2023-05-10T12:33:09.206Z,26.74
2023-05-10T12:36:13.671Z,24.75
2023-05-10T12:39:16.791Z,23.45
2023-05-10T12:42:19.346Z,22.75
2023-05-10T12:45:22.033Z,22.36
2023-05-10T12:48:24.791Z,22.16
2023-05-10T12:51:27.362Z,22.20
2023-05-10T12:54:30.183Z,22.53
2023-05-10T12:57:32.663Z,22.63
2023-05-10T13:00:35.109Z,23.06
2023-05-10T13:03:37.640Z,23.61
2023-05-10T13:06:40.173Z,23.59
2023-05-10T13:09:42.804Z,23.55
2023-05-10T13:12:46.273Z,23.17
2023-05-10T13:15:49.784Z,23.53
2023-05-10T13:18:52.177Z,24.42
2023-05-10T13:21:54.636Z,24.00
2023-05-10T13:24:57.058Z,25.64
2023-05-10T13:27:59.538Z,29.89
2023-05-10T13:31:03.371Z,30.37
2023-05-10T13:34:06.375Z,28.67
2023-05-10T13:37:08.806Z,29.15
2023-05-10T13:40:11.451Z,30.60
2023-05-10T13:43:13.960Z,29.39
2023-05-10T13:46:16.537Z,26.43
2023-05-10T13:49:19.062Z,26.59
2023-05-10T13:52:22.335Z,26.36
2023-05-10T13:55:25.501Z,24.70
2023-05-10T13:58:27.970Z,24.09
2023-05-10T14:01:30.492Z,25.01
2023-05-10T14:04:33.077Z,24.19
2023-05-10T14:07:35.767Z,23.39
2023-05-10T14:10:39.070Z,23.69
2023-05-10T14:13:41.541Z,25.31
2023-05-10T14:16:46.682Z,23.77
2023-05-10T14:19:49.202Z,23.05
2023-05-10T14:22:51.859Z,23.06
2023-05-10T14:25:55.522Z,23.11
2023-05-10T14:28:58.221Z,23.35
2023-05-10T14:32:00.872Z,23.72
2023-05-10T14:35:03.979Z,24.02
2023-05-10T14:38:06.687Z,24.67
2023-05-10T14:41:11.264Z,23.78
2023-05-10T14:44:14.396Z,22.93
2023-05-10T14:47:16.824Z,22.96
2023-05-10T14:50:35.317Z,22.45
2023-05-10T14:53:39.460Z,22.70
2023-05-10T14:56:42.620Z,22.70
2023-05-10T14:59:45.068Z,22.62
2023-05-10T15:02:49.127Z,22.82
2023-05-10T15:05:52.656Z,23.22
2023-05-10T15:08:55.019Z,23.35
2023-05-10T15:11:57.459Z,23.81
2023-05-10T15:14:59.856Z,24.49
2023-05-10T15:18:02.540Z,23.73
2023-05-10T15:21:05.093Z,23.68
2023-05-10T15:24:07.677Z,26.09
2023-05-10T15:27:10.123Z,27.48
2023-05-10T15:30:13.264Z,29.02
2023-05-10T15:33:15.817Z,26.08
2023-05-10T15:36:19.031Z,24.45
2023-05-10T15:39:21.606Z,27.36
2023-05-10T15:42:24.060Z,29.60
2023-05-10T15:45:26.472Z,29.08
2023-05-10T15:48:29.142Z,28.89
2023-05-10T15:51:34.871Z,29.07
2023-05-10T15:54:39.543Z,28.69
2023-05-10T15:57:43.658Z,30.13
2023-05-10T16:00:46.158Z,29.94
2023-05-10T16:03:48.562Z,29.03
2023-05-10T16:06:50.985Z,29.49
2023-05-10T16:09:53.452Z,28.20
2023-05-10T16:12:56.239Z,26.95
2023-05-10T16:15:58.712Z,25.73
2023-05-10T16:19:02.422Z,26.88
2023-05-10T16:22:05.189Z,27.55
2023-05-10T16:25:08.337Z,27.33
2023-05-10T16:28:10.934Z,27.27
2023-05-10T16:31:13.930Z,27.06
2023-05-10T16:34:16.583Z,27.53
2023-05-10T16:37:19.043Z,27.01
2023-05-10T16:40:22.028Z,24.81
2023-05-10T16:43:26.139Z,25.14
2023-05-10T16:46:28.937Z,25.37
2023-05-10T16:49:31.605Z,25.76
2023-05-10T16:52:35.379Z,25.83
2023-05-10T16:55:38.037Z,26.12
2023-05-10T16:58:40.508Z,26.30
2023-05-10T17:01:43.000Z,24.89
2023-05-10T17:04:45.618Z,23.46
2023-05-10T17:07:48.268Z,22.88
2023-05-10T17:10:50.628Z,23.38
2023-05-10T17:16:55.692Z,22.94
2023-05-10T17:19:58.796Z,22.99
2023-05-10T17:23:03.223Z,21.73
2023-05-10T17:26:06.858Z,21.12
2023-05-10T17:29:09.422Z,20.73
2023-05-10T17:32:11.877Z,20.26
2023-05-10T17:35:14.616Z,20.08
2023-05-10T17:38:17.376Z,19.74
2023-05-10T17:41:19.951Z,19.74
2023-05-10T17:44:22.421Z,19.50
2023-05-10T17:47:24.994Z,19.36
2023-05-10T17:50:27.636Z,19.26
2023-05-10T17:53:30.631Z,19.02
2023-05-10T17:56:33.020Z,19.00
2023-05-10T17:59:35.504Z,18.79
2023-05-10T18:02:38.062Z,18.79
2023-05-10T18:05:40.760Z,18.61
2023-05-10T18:08:43.337Z,18.46
2023-05-10T18:11:45.801Z,18.31
2023-05-10T18:14:48.298Z,18.32
2023-05-10T18:17:50.870Z,18.17
2023-05-10T18:20:56.708Z,18.13
2023-05-10T18:23:59.160Z,17.97
2023-05-10T18:27:02.013Z,17.77
2023-05-10T18:30:06.258Z,17.67
2023-05-10T18:33:11.912Z,17.50
2023-05-10T18:36:14.695Z,17.54
2023-05-10T18:39:18.681Z,17.43
2023-05-10T18:42:21.322Z,17.30
2023-05-10T18:45:23.870Z,17.21
2023-05-10T18:48:26.671Z,17.21
2023-05-10T18:51:32.564Z,17.08
2023-05-10T18:54:35.026Z,16.92
2023-05-10T18:57:41.524Z,16.94
2023-05-10T19:00:44.489Z,16.86
2023-05-10T19:03:46.982Z,16.81
2023-05-10T19:06:49.554Z,16.82
2023-05-10T19:09:52.239Z,16.91
2023-05-10T19:12:55.064Z,16.87
2023-05-10T19:16:16.971Z,16.95
2023-05-10T19:19:19.649Z,16.93
2023-05-10T19:22:35.300Z,16.72
2023-05-10T19:25:45.557Z,16.74
2023-05-10T19:28:51.002Z,16.77
2023-05-10T19:31:53.885Z,16.53
2023-05-10T19:34:56.985Z,16.57
2023-05-10T19:37:59.444Z,16.58
2023-05-10T19:41:02.042Z,16.51
2023-05-10T19:44:04.932Z,16.29
2023-05-10T19:47:09.544Z,16.44
2023-05-10T19:50:12.611Z,16.44
2023-05-10T19:53:15.434Z,16.42
2023-05-10T19:56:18.476Z,16.31
2023-05-10T19:59:21.152Z,16.38
2023-05-10T20:02:23.663Z,16.34
2023-05-10T20:05:27.669Z,16.36
2023-05-10T20:08:31.050Z,16.38
2023-05-10T20:11:34.256Z,16.28
2023-05-10T20:14:37.124Z,16.30
2023-05-10T20:17:39.937Z,16.18
2023-05-10T20:20:43.214Z,16.11
2023-05-10T20:23:45.649Z,16.17
2023-05-10T20:26:48.160Z,15.91
2023-05-10T20:29:50.659Z,15.89
2023-05-10T20:32:53.613Z,15.88
2023-05-10T20:35:56.301Z,15.79
2023-05-10T20:38:58.671Z,15.82
2023-05-10T20:42:01.202Z,15.71
2023-05-10T20:45:04.491Z,15.64
2023-05-10T20:48:07.828Z,15.64
2023-05-10T20:51:10.307Z,15.70
2023-05-10T20:54:12.744Z,15.63
2023-05-10T20:57:15.533Z,15.59
2023-05-10T21:00:18.287Z,15.61
2023-05-10T21:03:20.974Z,15.51
2023-05-10T21:06:23.517Z,15.43
2023-05-10T21:09:25.922Z,15.42
2023-05-10T21:12:28.404Z,15.36
2023-05-10T21:15:30.877Z,15.33
2023-05-10T21:18:33.326Z,15.31
2023-05-10T21:21:36.025Z,15.26
2023-05-10T21:24:38.565Z,15.16
2023-05-10T21:27:40.934Z,15.24
2023-05-10T21:30:43.346Z,15.27
2023-05-10T21:33:45.926Z,15.24
2023-05-10T21:36:48.514Z,15.17
2023-05-10T21:39:52.868Z,15.16
2023-05-10T21:42:55.437Z,15.10
2023-05-10T21:45:57.867Z,15.17
2023-05-10T21:49:00.360Z,15.21
2023-05-10T21:52:02.791Z,15.15
2023-05-10T21:55:06.642Z,15.21
2023-05-10T21:58:09.088Z,15.12
2023-05-10T22:01:11.589Z,15.05
2023-05-10T22:04:14.130Z,15.15
2023-05-10T22:07:17.073Z,15.12
2023-05-10T22:10:19.870Z,15.02
2023-05-10T22:13:22.397Z,15.04
2023-05-10T22:16:25.109Z,15.00
2023-05-10T22:19:27.803Z,14.99
2023-05-10T22:22:30.137Z,15.02
2023-05-10T22:25:32.648Z,14.94
2023-05-10T22:28:35.167Z,15.01
2023-05-10T22:31:38.277Z,14.93
2023-05-10T22:34:43.120Z,14.97
2023-05-10T22:37:45.513Z,14.84
2023-05-10T22:40:47.891Z,14.96
2023-05-10T22:43:50.501Z,14.84
2023-05-10T22:46:52.968Z,14.78
2023-05-10T22:49:56.172Z,14.68
2023-05-10T22:52:58.661Z,14.70
2023-05-10T22:56:01.617Z,14.64
2023-05-10T22:59:04.163Z,14.66
2023-05-10T23:02:07.094Z,14.62
2023-05-10T23:05:10.009Z,14.55
2023-05-10T23:08:12.981Z,14.42
2023-05-10T23:11:15.501Z,14.35
2023-05-10T23:14:17.857Z,14.27
2023-05-10T23:17:20.563Z,14.09
2023-05-10T23:20:22.970Z,14.01
2023-05-10T23:23:25.651Z,13.98
2023-05-10T23:26:28.129Z,14.05
2023-05-10T23:29:32.046Z,13.83
2023-05-10T23:32:34.536Z,13.86
2023-05-10T23:35:37.173Z,13.92
2023-05-10T23:38:39.647Z,13.83
2023-05-10T23:41:42.758Z,13.92
2023-05-10T23:44:45.462Z,13.98
2023-05-10T23:47:47.973Z,14.13
2023-05-10T23:50:50.735Z,14.12
2023-05-10T23:53:53.180Z,14.15
2023-05-10T23:56:55.732Z,14.08
2023-05-10T23:59:58.381Z,14.11
